createdAt,value
2018-02-10T00:01:59.817Z,38.50
2018-02-10T00:04:27.842Z,38.40
2018-02-10T00:06:55.869Z,38.40
2018-02-10T00:09:23.911Z,38.40
2018-02-10T00:11:52.696Z,38.50
2018-02-10T00:14:20.771Z,38.40
2018-02-10T00:16:48.823Z,38.30
2018-02-10T00:19:16.864Z,38.40
2018-02-10T00:21:44.897Z,38.40
2018-02-10T00:24:13.682Z,38.30
2018-02-10T00:26:41.728Z,38.30
2018-02-10T00:29:09.764Z,38.40
2018-02-10T00:31:37.799Z,38.40
2018-02-10T00:34:06.626Z,38.50
2018-02-10T00:36:34.651Z,38.40
2018-02-10T00:39:02.672Z,38.20
2018-02-10T00:41:30.698Z,38.40
2018-02-10T00:43:59.486Z,38.40
2018-02-10T00:46:27.568Z,38.40
2018-02-10T00:48:55.595Z,38.40
2018-02-10T00:51:23.610Z,38.30
2018-02-10T00:53:51.652Z,38.40
2018-02-10T00:56:19.682Z,38.40
2018-02-10T00:58:47.776Z,38.40
2018-02-10T01:01:15.998Z,38.40
2018-02-10T01:03:44.034Z,38.30
2018-02-10T01:06:12.520Z,38.40
2018-02-10T01:08:40.553Z,38.40
2018-02-10T01:11:08.617Z,38.40
2018-02-10T01:13:36.663Z,38.40
2018-02-10T01:16:05.447Z,38.40
2018-02-10T01:18:33.494Z,38.30
2018-02-10T01:21:03.039Z,38.40
2018-02-10T01:23:31.101Z,38.40
2018-02-10T01:25:59.883Z,38.40
2018-02-10T01:28:28.675Z,38.30
2018-02-10T01:30:56.698Z,38.30
2018-02-10T01:33:24.738Z,38.20
2018-02-10T01:35:52.882Z,38.40
2018-02-10T01:38:20.960Z,38.40
2018-02-10T01:40:48.980Z,38.30
2018-02-10T01:43:16.997Z,38.30
2018-02-10T01:45:45.781Z,38.40
2018-02-10T01:48:13.852Z,38.30
2018-02-10T01:50:41.877Z,38.30
2018-02-10T01:53:09.896Z,38.40
2018-02-10T01:55:37.920Z,38.30
2018-02-10T01:58:05.952Z,38.30
2018-02-10T02:00:34.000Z,38.30
2018-02-10T02:03:02.035Z,38.30
2018-02-10T02:05:30.067Z,38.30
2018-02-10T02:07:58.214Z,38.30
2018-02-10T02:10:26.248Z,38.30
2018-02-10T02:12:54.286Z,38.30
2018-02-10T02:15:23.088Z,38.30
2018-02-10T02:17:51.118Z,38.20
2018-02-10T02:20:19.156Z,38.20
2018-02-10T02:22:47.201Z,38.20
2018-02-10T02:25:16.014Z,38.40
2018-02-10T02:27:44.034Z,38.30
2018-02-10T02:30:12.054Z,38.20
2018-02-10T02:32:40.099Z,38.30
2018-02-10T02:35:09.064Z,38.40
2018-02-10T02:37:37.106Z,38.40
2018-02-10T02:40:05.135Z,38.30
2018-02-10T02:42:33.929Z,38.40
2018-02-10T02:45:01.961Z,38.30
2018-02-10T02:47:30.027Z,38.30
2018-02-10T02:49:58.082Z,38.30
2018-02-10T02:52:26.103Z,38.30
2018-02-10T02:54:54.906Z,38.30
2018-02-10T02:57:22.932Z,38.30
2018-02-10T02:59:50.951Z,38.30
2018-02-10T03:02:19.027Z,38.20
2018-02-10T03:04:47.043Z,38.30
2018-02-10T03:07:15.080Z,38.30
2018-02-10T03:09:44.061Z,38.30
2018-02-10T03:12:12.108Z,38.30
2018-02-10T03:14:40.932Z,38.30
2018-02-10T03:17:08.953Z,38.30
2018-02-10T03:19:36.976Z,38.20
2018-02-10T03:22:04.997Z,38.20
2018-02-10T03:24:33.034Z,38.20
2018-02-10T03:27:01.085Z,38.60
2018-02-10T03:29:29.103Z,38.20
2018-02-10T03:31:57.178Z,38.20
2018-02-10T03:34:25.206Z,38.20
2018-02-10T03:36:53.261Z,38.10
2018-02-10T03:39:22.073Z,38.20
2018-02-10T03:41:50.085Z,38.20
2018-02-10T03:44:19.621Z,38.20
2018-02-10T03:46:47.655Z,38.20
2018-02-10T03:49:15.672Z,38.20
2018-02-10T03:51:43.732Z,38.20
2018-02-10T03:54:11.893Z,38.20
2018-02-10T03:56:39.915Z,38.20
2018-02-10T03:59:07.931Z,38.10
2018-02-10T04:01:36.739Z,38.20
2018-02-10T04:04:04.795Z,38.20
2018-02-10T04:06:32.823Z,38.20
2018-02-10T04:09:00.850Z,38.80
2018-02-10T04:11:29.232Z,38.10
2018-02-10T04:13:57.247Z,38.10
2018-02-10T04:16:25.313Z,38.20
2018-02-10T04:18:53.341Z,38.20
2018-02-10T04:21:22.125Z,38.20
2018-02-10T04:23:50.205Z,38.20
2018-02-10T04:26:18.239Z,38.20
2018-02-10T04:28:46.361Z,38.20
2018-02-10T04:31:14.721Z,38.10
2018-02-10T04:33:43.115Z,38.00
2018-02-10T04:36:11.153Z,38.20
2018-02-10T04:38:39.469Z,38.20
2018-02-10T04:41:07.513Z,37.90
2018-02-10T04:43:35.562Z,37.60
2018-02-10T04:46:03.620Z,37.50
2018-02-10T04:48:31.652Z,37.40
2018-02-10T04:51:00.448Z,37.30
2018-02-10T04:53:28.507Z,37.30
2018-02-10T04:55:56.551Z,37.20
2018-02-10T04:58:24.564Z,37.20
2018-02-10T05:00:52.585Z,37.20
2018-02-10T05:03:20.617Z,37.10
2018-02-10T05:05:48.676Z,37.10
2018-02-10T05:08:16.702Z,37.10
2018-02-10T05:10:44.727Z,37.00
2018-02-10T05:13:13.068Z,37.00
2018-02-10T05:15:41.082Z,37.00
2018-02-10T05:18:09.160Z,36.80
2018-02-10T05:20:37.186Z,36.80
2018-02-10T05:23:05.207Z,36.90
2018-02-10T05:25:33.233Z,37.00
2018-02-10T05:28:01.270Z,36.90
2018-02-10T05:30:29.322Z,36.90
2018-02-10T05:32:57.366Z,36.90
2018-02-10T05:35:26.154Z,37.00
2018-02-10T05:37:54.934Z,37.00
2018-02-10T05:40:23.739Z,37.00
2018-02-10T05:42:51.809Z,37.00
2018-02-10T05:45:20.590Z,36.80
2018-02-10T05:47:49.382Z,36.90
2018-02-10T05:50:17.420Z,36.80
2018-02-10T05:52:45.433Z,37.00
2018-02-10T05:55:13.559Z,37.10
2018-02-10T05:57:41.611Z,38.60
2018-02-10T06:00:09.680Z,37.70
2018-02-10T06:02:37.720Z,37.90
2018-02-10T06:05:05.904Z,38.00
2018-02-10T06:07:33.989Z,38.00
2018-02-10T06:10:02.065Z,38.00
2018-02-10T06:12:30.089Z,38.10
2018-02-10T06:14:58.102Z,38.20
2018-02-10T06:17:26.134Z,39.00
2018-02-10T06:19:54.985Z,39.70
2018-02-10T06:22:23.187Z,39.70
2018-02-10T06:24:51.246Z,39.80
2018-02-10T06:27:19.303Z,40.10
2018-02-10T06:29:47.350Z,40.30
2018-02-10T06:32:15.474Z,40.50
2018-02-10T06:34:43.531Z,41.00
2018-02-10T06:37:11.583Z,40.30
2018-02-10T06:39:39.646Z,40.50
2018-02-10T06:42:07.700Z,41.10
2018-02-10T06:44:35.748Z,41.50
2018-02-10T06:47:03.783Z,41.10
2018-02-10T06:49:31.827Z,40.20
2018-02-10T06:51:59.911Z,41.10
2018-02-10T06:54:27.959Z,41.60
2018-02-10T06:56:56.003Z,41.70
2018-02-10T06:59:24.062Z,41.90
2018-02-10T07:01:52.104Z,41.90
2018-02-10T07:04:20.185Z,42.20
2018-02-10T07:06:48.220Z,42.10
2018-02-10T07:09:16.272Z,42.70
2018-02-10T07:11:45.088Z,41.80
2018-02-10T07:14:13.158Z,41.90
2018-02-10T07:16:41.177Z,41.50
2018-02-10T07:19:09.232Z,41.20
2018-02-10T07:21:38.035Z,39.40
2018-02-10T07:24:06.077Z,39.30
2018-02-10T07:26:34.124Z,40.90
2018-02-10T07:29:02.152Z,40.00
2018-02-10T07:31:30.200Z,41.00
2018-02-10T07:33:58.272Z,41.10
2018-02-10T07:36:26.593Z,41.20
2018-02-10T07:38:56.103Z,41.30
2018-02-10T07:41:24.186Z,41.20
2018-02-10T07:43:53.008Z,41.20
2018-02-10T07:46:21.042Z,41.20
2018-02-10T07:48:49.834Z,41.30
2018-02-10T07:51:17.863Z,41.20
2018-02-10T07:53:45.897Z,41.20
2018-02-10T07:56:13.937Z,41.30
2018-02-10T07:58:41.958Z,41.20
2018-02-10T08:01:09.992Z,41.20
2018-02-10T08:03:38.001Z,41.30
2018-02-10T08:06:06.044Z,41.10
2018-02-10T08:08:34.109Z,41.20
2018-02-10T08:11:02.882Z,41.20
2018-02-10T08:13:30.941Z,41.20
2018-02-10T08:15:58.962Z,41.20
2018-02-10T08:18:26.977Z,41.20
2018-02-10T08:20:55.318Z,41.20
2018-02-10T08:23:23.331Z,41.80
2018-02-10T08:25:51.362Z,41.00
2018-02-10T08:28:19.403Z,41.20
2018-02-10T08:30:47.495Z,41.00
2018-02-10T08:33:15.512Z,41.00
2018-02-10T08:35:43.533Z,41.00
2018-02-10T08:38:11.562Z,41.10
2018-02-10T08:40:39.582Z,41.00
2018-02-10T08:43:07.842Z,40.90
2018-02-10T08:45:36.652Z,40.90
2018-02-10T08:48:04.692Z,40.90
2018-02-10T08:50:32.702Z,40.80
2018-02-10T08:53:00.726Z,40.90
2018-02-10T08:55:28.780Z,40.90
2018-02-10T08:57:56.891Z,40.90
2018-02-10T09:00:24.949Z,40.80
2018-02-10T09:02:52.986Z,40.90
2018-02-10T09:05:21.008Z,40.80
2018-02-10T09:07:49.799Z,40.60
2018-02-10T09:10:18.041Z,40.60
2018-02-10T09:12:46.077Z,40.50
2018-02-10T09:15:14.097Z,40.50
2018-02-10T09:17:42.151Z,40.40
2018-02-10T09:20:10.183Z,40.40
2018-02-10T09:22:38.243Z,40.40
2018-02-10T09:25:06.252Z,40.40
2018-02-10T09:27:34.277Z,40.40
2018-02-10T09:30:02.299Z,40.40
2018-02-10T09:32:30.326Z,40.40
2018-02-10T09:34:58.400Z,40.20
2018-02-10T09:37:26.404Z,40.30
2018-02-10T09:39:54.421Z,40.30
2018-02-10T09:42:23.202Z,40.20
2018-02-10T09:44:51.238Z,40.10
2018-02-10T09:47:19.296Z,40.00
2018-02-10T09:49:47.338Z,39.90
2018-02-10T09:52:15.383Z,39.80
2018-02-10T09:54:43.399Z,39.80
2018-02-10T09:57:11.420Z,39.60
2018-02-10T09:59:39.469Z,39.50
2018-02-10T10:02:07.507Z,39.50
2018-02-10T10:04:35.564Z,39.50
2018-02-10T10:07:03.588Z,39.40
2018-02-10T10:09:31.601Z,39.30
2018-02-10T10:11:59.683Z,39.20
2018-02-10T10:14:27.723Z,39.20
2018-02-10T10:16:55.793Z,39.20
2018-02-10T10:19:23.821Z,39.20
2018-02-10T10:21:51.926Z,39.20
2018-02-10T10:24:19.986Z,39.20
2018-02-10T10:26:48.003Z,39.20
2018-02-10T10:29:16.789Z,39.20
2018-02-10T10:31:44.818Z,39.20
2018-02-10T10:34:12.846Z,39.20
2018-02-10T10:36:41.046Z,39.20
2018-02-10T10:39:09.071Z,39.20
2018-02-10T10:41:37.089Z,39.20
2018-02-10T10:44:06.051Z,39.20
2018-02-10T10:46:34.071Z,39.20
2018-02-10T10:49:02.135Z,39.20
2018-02-10T10:51:30.164Z,39.20
2018-02-10T10:53:58.940Z,39.10
2018-02-10T10:56:26.984Z,39.10
2018-02-10T10:58:55.024Z,39.10
2018-02-10T11:01:23.080Z,39.00
2018-02-10T11:03:51.095Z,39.10
2018-02-10T11:06:19.142Z,39.00
2018-02-10T11:08:47.170Z,39.10
2018-02-10T11:11:15.982Z,39.10
2018-02-10T11:13:44.046Z,39.10
2018-02-10T11:16:12.065Z,39.10
2018-02-10T11:18:40.152Z,39.10
2018-02-10T11:21:08.320Z,39.00
2018-02-10T11:23:37.864Z,39.20
2018-02-10T11:26:05.924Z,39.10
2018-02-10T11:28:33.944Z,39.10
2018-02-10T11:31:01.970Z,39.10
2018-02-10T11:33:30.945Z,39.10
2018-02-10T11:35:58.958Z,39.10
2018-02-10T11:38:27.143Z,39.10
2018-02-10T11:40:55.159Z,39.10
2018-02-10T11:43:23.194Z,39.10
2018-02-10T11:45:51.207Z,39.10
2018-02-10T11:48:19.249Z,39.10
2018-02-10T11:50:47.299Z,39.10
2018-02-10T11:53:15.317Z,39.10
2018-02-10T11:55:44.860Z,39.20
2018-02-10T11:58:12.888Z,39.10
2018-02-10T12:00:40.905Z,39.20
2018-02-10T12:03:09.862Z,39.20
2018-02-10T12:05:37.894Z,39.20
2018-02-10T12:08:05.935Z,39.20
2018-02-10T12:10:34.719Z,39.30
2018-02-10T12:13:02.743Z,39.30
2018-02-10T12:15:30.805Z,39.30
2018-02-10T12:17:58.832Z,39.30
2018-02-10T12:20:27.629Z,39.30
2018-02-10T12:22:55.656Z,39.30
2018-02-10T12:25:23.753Z,39.30
2018-02-10T12:27:51.793Z,39.30
2018-02-10T12:30:19.975Z,39.30
2018-02-10T12:32:48.038Z,39.30
2018-02-10T12:35:17.047Z,39.40
2018-02-10T12:37:45.086Z,39.30
2018-02-10T12:40:13.142Z,39.40
2018-02-10T12:42:41.188Z,39.50
2018-02-10T12:45:09.976Z,39.50
2018-02-10T12:50:41.477Z,39.40
2018-02-10T12:53:10.256Z,39.60
2018-02-10T12:55:38.276Z,39.60
2018-02-10T12:58:06.324Z,39.60
2018-02-10T13:00:34.348Z,39.60
2018-02-10T13:03:03.342Z,39.80
2018-02-10T13:05:31.358Z,39.70
2018-02-10T13:07:59.455Z,39.70
2018-02-10T13:10:27.525Z,39.80
2018-02-10T13:12:55.614Z,39.70
2018-02-10T13:15:23.629Z,39.80
2018-02-10T13:17:51.739Z,39.80
2018-02-10T13:20:19.782Z,39.80
2018-02-10T13:22:47.828Z,39.80
2018-02-10T13:25:16.610Z,39.90
2018-02-10T13:27:44.639Z,39.90
2018-02-10T13:30:12.661Z,39.90
2018-02-10T13:32:41.491Z,40.00
2018-02-10T13:35:09.568Z,39.90
2018-02-10T13:37:37.588Z,40.00
2018-02-10T13:40:05.606Z,39.90
2018-02-10T13:42:33.635Z,40.00
2018-02-10T13:45:02.431Z,40.00
2018-02-10T13:47:30.488Z,39.90
2018-02-10T13:49:58.520Z,40.10
2018-02-10T13:52:26.627Z,40.00
2018-02-10T13:54:54.674Z,40.00
2018-02-10T13:57:22.829Z,40.00
2018-02-10T13:59:50.888Z,40.10
2018-02-10T14:02:18.936Z,40.10
2018-02-10T14:04:46.947Z,40.10
2018-02-10T14:07:15.028Z,40.10
2018-02-10T14:09:43.057Z,40.10
2018-02-10T14:12:11.878Z,40.10
2018-02-10T14:14:39.929Z,40.10
2018-02-10T14:17:07.959Z,40.80
2018-02-10T14:19:36.024Z,40.20
2018-02-10T14:22:04.063Z,40.20
2018-02-10T14:24:32.116Z,40.10
2018-02-10T14:27:00.155Z,40.20
2018-02-10T14:29:28.197Z,40.20
2018-02-10T14:31:56.375Z,40.50
2018-02-10T14:34:24.411Z,40.20
2018-02-10T14:36:52.479Z,40.20
2018-02-10T14:39:20.499Z,40.30
2018-02-10T14:41:48.562Z,36.20
2018-02-10T14:44:16.606Z,36.60
2018-02-10T14:46:44.665Z,37.00
2018-02-10T14:49:12.710Z,38.60
2018-02-10T14:51:40.751Z,39.30
2018-02-10T14:54:08.805Z,39.50
2018-02-10T14:56:36.863Z,39.90
2018-02-10T14:59:04.910Z,39.30
2018-02-10T15:01:33.733Z,40.60
2018-02-10T15:04:01.774Z,40.50
2018-02-10T15:06:30.585Z,41.10
2018-02-10T15:08:58.663Z,41.10
2018-02-10T15:11:26.725Z,41.40
2018-02-10T15:13:54.784Z,41.40
2018-02-10T15:16:23.651Z,41.70
2018-02-10T15:18:51.702Z,41.70
2018-02-10T15:21:20.552Z,41.40
2018-02-10T15:23:48.602Z,41.90
2018-02-10T15:26:16.729Z,41.70
2018-02-10T15:28:44.961Z,41.80
2018-02-10T15:31:13.016Z,41.80
2018-02-10T15:33:41.098Z,41.80
2018-02-10T15:36:09.141Z,42.00
2018-02-10T15:38:37.230Z,42.10
2018-02-10T15:41:05.249Z,42.10
2018-02-10T15:43:33.286Z,41.60
2018-02-10T15:46:01.692Z,41.30
2018-02-10T15:48:29.902Z,40.80
2018-02-10T15:50:57.974Z,41.10
2018-02-10T15:53:26.023Z,41.40
2018-02-10T15:55:54.131Z,41.80
2018-02-10T15:58:22.193Z,41.80
2018-02-10T16:00:50.208Z,41.80
2018-02-10T16:03:18.249Z,41.90
2018-02-10T16:05:46.285Z,42.00
2018-02-10T16:08:14.325Z,42.10
2018-02-10T16:10:42.411Z,42.50
2018-02-10T16:13:10.443Z,42.60
2018-02-10T16:15:38.525Z,42.80
2018-02-10T16:18:06.560Z,43.00
2018-02-10T16:20:34.591Z,42.80
2018-02-10T16:23:02.656Z,42.80
2018-02-10T16:25:30.693Z,42.90
2018-02-10T16:27:58.735Z,43.10
2018-02-10T16:30:26.776Z,44.00
2018-02-10T16:32:54.818Z,42.90
2018-02-10T16:35:22.859Z,43.10
2018-02-10T16:37:50.888Z,42.70
2018-02-10T16:40:18.947Z,42.40
2018-02-10T16:42:46.981Z,41.90
2018-02-10T16:45:15.894Z,41.70
2018-02-10T16:47:43.937Z,41.60
2018-02-10T16:50:11.966Z,41.60
2018-02-10T16:52:40.020Z,41.70
2018-02-10T16:55:08.054Z,41.70
2018-02-10T16:57:36.953Z,41.60
2018-02-10T17:00:05.236Z,41.60
2018-02-10T17:02:33.290Z,41.80
2018-02-10T17:05:02.098Z,41.80
2018-02-10T17:07:30.146Z,41.70
2018-02-10T17:09:58.192Z,41.60
2018-02-10T17:12:26.238Z,41.50
2018-02-10T17:14:54.281Z,41.80
2018-02-10T17:17:23.827Z,41.90
2018-02-10T17:19:51.890Z,41.90
2018-02-10T17:22:19.990Z,41.70
2018-02-10T17:24:48.211Z,41.90
2018-02-10T17:27:16.252Z,41.30
2018-02-10T17:29:44.300Z,41.30
2018-02-10T17:32:12.336Z,41.80
2018-02-10T17:34:40.390Z,41.00
2018-02-10T17:37:08.426Z,41.00
2018-02-10T17:39:36.488Z,40.90
2018-02-10T17:42:05.349Z,40.80
2018-02-10T17:44:33.403Z,40.80
2018-02-10T17:47:01.477Z,40.70
2018-02-10T17:49:29.552Z,40.60
2018-02-10T17:51:57.645Z,40.50
2018-02-10T17:54:25.693Z,40.40
2018-02-10T17:56:53.791Z,40.40
2018-02-10T17:59:21.825Z,40.50
2018-02-10T18:01:49.892Z,40.60
2018-02-10T18:04:17.905Z,40.40
2018-02-10T18:06:45.947Z,40.10
2018-02-10T18:09:14.131Z,39.90
2018-02-10T18:11:42.202Z,39.80
2018-02-10T18:14:10.238Z,39.70
2018-02-10T18:16:38.291Z,39.70
2018-02-10T18:19:06.432Z,39.40
2018-02-10T18:21:35.223Z,39.40
2018-02-10T18:24:04.013Z,39.10
2018-02-10T18:26:32.050Z,39.00
2018-02-10T18:29:00.110Z,39.20
2018-02-10T18:31:28.144Z,39.00
2018-02-10T18:33:56.205Z,38.70
2018-02-10T18:36:25.006Z,39.10
2018-02-10T18:38:53.061Z,39.00
2018-02-10T18:41:21.090Z,38.80
2018-02-10T18:43:49.128Z,39.30
2018-02-10T18:46:17.942Z,38.80
2018-02-10T18:48:46.007Z,38.80
2018-02-10T18:51:14.021Z,38.70
2018-02-10T18:53:42.045Z,39.00
2018-02-10T18:56:10.110Z,38.50
2018-02-10T18:58:38.194Z,39.40
2018-02-10T19:01:06.509Z,38.90
2018-02-10T19:03:34.617Z,38.70
2018-02-10T19:06:02.695Z,39.50
2018-02-10T19:08:31.503Z,39.20
2018-02-10T19:10:59.587Z,39.10
2018-02-10T19:13:27.643Z,39.00
2018-02-10T19:15:55.666Z,38.60
2018-02-10T19:18:23.722Z,38.80
2018-02-10T19:20:51.772Z,38.90
2018-02-10T19:23:19.812Z,39.00
2018-02-10T19:25:47.917Z,39.30
2018-02-10T19:28:16.724Z,39.20
2018-02-10T19:30:45.591Z,38.90
2018-02-10T19:33:14.922Z,38.70
2018-02-10T19:35:43.288Z,38.70
2018-02-10T19:38:11.629Z,38.70
2018-02-10T19:40:40.013Z,38.70
2018-02-10T19:43:08.950Z,38.60
2018-02-10T19:45:37.732Z,38.40
2018-02-10T19:48:08.974Z,38.20
2018-02-10T19:50:37.211Z,38.10
2018-02-10T19:53:06.593Z,38.30
2018-02-10T19:55:35.278Z,37.90
2018-02-10T19:58:03.945Z,38.10
2018-02-10T20:00:47.158Z,37.70
2018-02-10T20:03:16.723Z,37.50
2018-02-10T20:05:47.338Z,37.50
2018-02-10T20:08:16.502Z,37.90
2018-02-10T20:10:45.322Z,37.90
2018-02-10T20:13:14.923Z,37.60
2018-02-10T20:15:46.788Z,38.10
2018-02-10T20:18:15.806Z,37.30
2018-02-10T20:20:44.464Z,37.90
2018-02-10T20:23:14.665Z,37.30
2018-02-10T20:25:43.045Z,37.10
2018-02-10T20:28:12.521Z,37.40
2018-02-10T20:30:40.706Z,37.40
2018-02-10T20:33:09.008Z,37.80
2018-02-10T20:35:42.926Z,37.50
2018-02-10T20:38:11.915Z,37.50
2018-02-10T20:40:43.020Z,37.70
2018-02-10T20:43:12.592Z,38.10
2018-02-10T20:45:41.985Z,38.00
2018-02-10T20:48:10.496Z,37.80
2018-02-10T20:50:39.794Z,37.80
2018-02-10T20:53:09.670Z,37.90
2018-02-10T20:55:38.464Z,37.80
2018-02-10T20:58:06.973Z,37.80
2018-02-10T21:00:36.154Z,37.70
2018-02-10T21:03:05.807Z,38.30
2018-02-10T21:05:35.113Z,38.40
2018-02-10T21:08:03.659Z,38.40
2018-02-10T21:10:32.256Z,38.10
2018-02-10T21:13:01.331Z,38.10
2018-02-10T21:15:29.919Z,38.10
2018-02-10T21:17:58.894Z,38.80
2018-02-10T21:20:27.330Z,38.80
2018-02-10T21:22:56.141Z,37.90
2018-02-10T21:25:25.286Z,38.30
2018-02-10T21:27:54.783Z,39.30
2018-02-10T21:30:23.191Z,39.30
2018-02-10T21:32:51.564Z,39.00
2018-02-10T21:35:20.013Z,38.40
2018-02-10T21:37:50.815Z,38.20
2018-02-10T21:40:19.308Z,37.90
2018-02-10T21:42:47.602Z,38.70
2018-02-10T21:45:16.137Z,38.80
2018-02-10T21:47:45.123Z,38.40
2018-02-10T21:50:13.758Z,38.30
2018-02-10T21:52:44.473Z,39.20
2018-02-10T21:55:13.684Z,39.20
2018-02-10T21:57:42.464Z,39.40
2018-02-10T22:00:11.816Z,39.40
2018-02-10T22:02:42.840Z,39.30
2018-02-10T22:05:11.617Z,39.30
2018-02-10T22:07:40.179Z,39.10
2018-02-10T22:10:08.520Z,39.20
2018-02-10T22:12:37.032Z,38.60
2018-02-10T22:15:05.830Z,38.50
2018-02-10T22:17:34.185Z,38.50
2018-02-10T22:20:04.279Z,37.60
2018-02-10T22:22:33.253Z,37.60
2018-02-10T22:25:02.187Z,37.50
2018-02-10T22:27:31.479Z,37.30
2018-02-10T22:30:00.988Z,37.40
2018-02-10T22:32:31.074Z,37.20
2018-02-10T22:34:59.676Z,37.40
2018-02-10T22:37:29.047Z,36.90
2018-02-10T22:39:58.325Z,37.30
2018-02-10T22:42:27.306Z,37.20
2018-02-10T22:44:56.244Z,37.00
2018-02-10T22:47:24.888Z,37.20
2018-02-10T22:49:54.781Z,37.10
2018-02-10T22:52:23.380Z,37.10
2018-02-10T22:54:52.163Z,36.90
2018-02-10T22:57:22.378Z,37.10
2018-02-10T22:59:51.939Z,37.10
2018-02-10T23:02:20.781Z,37.10
2018-02-10T23:04:50.381Z,37.00
2018-02-10T23:07:20.900Z,37.00
2018-02-10T23:09:49.810Z,37.00
2018-02-10T23:12:18.075Z,37.00
2018-02-10T23:14:47.088Z,37.00
2018-02-10T23:17:16.094Z,36.80
2018-02-10T23:19:45.408Z,36.80
2018-02-10T23:22:15.857Z,36.70
2018-02-10T23:24:45.684Z,36.80
2018-02-10T23:27:17.675Z,36.90
2018-02-10T23:29:47.526Z,37.00
2018-02-10T23:32:17.333Z,36.90
2018-02-10T23:34:49.741Z,36.80
2018-02-10T23:37:19.411Z,36.80
2018-02-10T23:39:49.352Z,36.80
2018-02-10T23:42:19.536Z,37.00
2018-02-10T23:44:49.121Z,36.90
2018-02-10T23:47:20.096Z,37.50
2018-02-10T23:49:50.207Z,36.90
2018-02-10T23:52:20.712Z,37.00
2018-02-10T23:54:50.847Z,36.90
2018-02-10T23:57:19.334Z,36.90
2018-02-10T23:59:47.564Z,36.80
